Time;durP1;ratioP1;P1;durP2;ratioP2;P2;SDS_P1;SDS_P2;PMS_P1;PMS_P2;Temp;Humidity;BMP_temperature;BMP_pressure;BME280_temperature;BME280_humidity;BME280_pressure;Samples;Min_cycle;Max_cycle;Signal;HPM_P1;HPM_P2
2023/08/02 00:00:40;;;;;;;8.43;3.27;;;;;;;;;;5032816;28;20395;-71
2023/08/02 00:03:06;;;;;;;8.60;3.57;;;;;;;;;;5034034;28;20179;-70
2023/08/02 00:05:32;;;;;;;12.33;3.57;;;;;;;;;;5034052;28;20198;-70
2023/08/02 00:07:58;;;;;;;5.87;3.00;;;;;;;;;;5034128;28;20202;-70
2023/08/02 00:10:24;;;;;;;7.13;3.33;;;;;;;;;;5034247;28;20669;-70
2023/08/02 00:12:52;;;;;;;6.23;3.20;;;;;;;;;;5034184;28;20214;-70
2023/08/02 00:15:19;;;;;;;6.43;3.20;;;;;;;;;;5033893;28;20190;-70
2023/08/02 00:17:45;;;;;;;7.33;3.10;;;;;;;;;;5034150;28;20650;-71
2023/08/02 00:20:11;;;;;;;7.67;3.13;;;;;;;;;;5033814;28;20274;-70
2023/08/02 00:22:37;;;;;;;10.27;3.53;;;;;;;;;;5034840;28;20470;-70
2023/08/02 00:25:03;;;;;;;11.13;3.17;;;;;;;;;;5033584;28;20201;-70
2023/08/02 00:27:29;;;;;;;9.27;2.93;;;;;;;;;;5017117;28;20189;-70
2023/08/02 00:29:55;;;;;;;5.60;3.03;;;;;;;;;;5034020;28;20195;-70
2023/08/02 00:32:21;;;;;;;6.63;3.07;;;;;;;;;;5033477;28;20182;-70
2023/08/02 00:34:54;;;;;;;6.50;3.17;;;;;;;;;;5032974;28;20179;-71
2023/08/02 00:37:20;;;;;;;7.73;3.07;;;;;;;;;;5033696;28;20168;-70
2023/08/02 00:39:49;;;;;;;4.53;2.70;;;;;;;;;;5033145;28;20249;-70
2023/08/02 00:42:15;;;;;;;7.40;3.30;;;;;;;;;;5033848;28;20175;-70
2023/08/02 00:44:41;;;;;;;8.60;3.00;;;;;;;;;;5033367;28;20202;-70
2023/08/02 00:47:07;;;;;;;5.67;3.10;;;;;;;;;;5015642;28;20175;-70
2023/08/02 00:49:33;;;;;;;7.82;3.40;;;;;;;;;;5032137;28;20411;-70
2023/08/02 00:51:59;;;;;;;8.70;3.05;;;;;;;;;;5032309;28;20895;-69
2023/08/02 00:54:25;;;;;;;7.78;3.20;;;;;;;;;;5032316;28;20398;-70
2023/08/02 00:56:51;;;;;;;7.18;3.05;;;;;;;;;;5032483;28;20831;-69
2023/08/02 00:59:17;;;;;;;6.50;3.23;;;;;;;;;;5032456;28;20395;-71
2023/08/02 01:01:43;;;;;;;6.63;3.03;;;;;;;;;;5014543;28;20393;-70
2023/08/02 01:04:09;;;;;;;10.10;3.25;;;;;;;;;;5032307;28;20733;-71
2023/08/02 01:06:38;;;;;;;7.03;3.25;;;;;;;;;;5014728;28;20376;-70
2023/08/02 01:09:05;;;;;;;10.15;3.30;;;;;;;;;;5032184;28;20387;-70
2023/08/02 01:11:37;;;;;;;7.88;3.20;;;;;;;;;;5014264;28;20911;-70
2023/08/02 01:14:05;;;;;;;6.82;3.30;;;;;;;;;;5032072;28;20454;-71
2023/08/02 01:16:32;;;;;;;7.28;3.13;;;;;;;;;;5033942;28;20383;-70
2023/08/02 01:18:59;;;;;;;6.95;3.45;;;;;;;;;;5032428;28;20383;-70
2023/08/02 01:21:25;;;;;;;8.05;3.20;;;;;;;;;;5040740;28;20390;-69
2023/08/02 01:23:51;;;;;;;8.15;3.20;;;;;;;;;;5032834;28;20375;-70
2023/08/02 01:26:18;;;;;;;6.47;3.10;;;;;;;;;;5032390;28;20908;-70
2023/08/02 01:28:47;;;;;;;7.88;3.30;;;;;;;;;;5014293;28;20387;-70
2023/08/02 01:31:16;;;;;;;6.95;3.20;;;;;;;;;;5031665;28;20379;-70
2023/08/02 01:33:53;;;;;;;8.60;3.35;;;;;;;;;;5031902;28;20426;-69
2023/08/02 01:36:19;;;;;;;7.03;3.50;;;;;;;;;;5013914;28;20379;-70
2023/08/02 01:38:45;;;;;;;9.88;3.40;;;;;;;;;;5032086;28;20387;-70
2023/08/02 01:41:11;;;;;;;8.77;3.20;;;;;;;;;;5032017;28;20424;-70
2023/08/02 01:43:37;;;;;;;9.40;3.70;;;;;;;;;;5031961;28;20423;-69
2023/08/02 01:46:02;;;;;;;7.15;3.40;;;;;;;;;;5035075;28;20403;-70
2023/08/02 01:48:28;;;;;;;9.40;3.40;;;;;;;;;;5018228;28;20490;-70
2023/08/02 01:50:56;;;;;;;8.20;3.63;;;;;;;;;;5035434;28;20398;-70
2023/08/02 01:53:22;;;;;;;7.65;3.28;;;;;;;;;;5035721;28;20390;-70
2023/08/02 01:55:48;;;;;;;10.68;3.50;;;;;;;;;;5035597;28;20387;-70
2023/08/02 01:58:13;;;;;;;7.13;3.47;;;;;;;;;;5017707;28;20481;-70
2023/08/02 02:00:39;;;;;;;9.90;3.47;;;;;;;;;;5035800;28;20450;-70
2023/08/02 02:03:05;;;;;;;7.32;3.40;;;;;;;;;;5035646;28;20885;-70
2023/08/02 02:05:31;;;;;;;9.40;4.07;;;;;;;;;;5035888;28;20417;-70
2023/08/02 02:07:57;;;;;;;8.67;3.77;;;;;;;;;;5036236;28;20383;-70
2023/08/02 02:10:23;;;;;;;12.30;4.25;;;;;;;;;;5035336;28;20383;-70
2023/08/02 02:12:49;;;;;;;9.18;3.90;;;;;;;;;;5035164;28;20474;-71
2023/08/02 02:15:15;;;;;;;8.48;3.88;;;;;;;;;;5039111;28;20458;-70
2023/08/02 02:17:42;;;;;;;8.93;3.77;;;;;;;;;;5035305;28;20741;-70
2023/08/02 02:20:09;;;;;;;7.65;3.80;;;;;;;;;;5034921;28;20390;-70
2023/08/02 02:22:35;;;;;;;9.02;3.95;;;;;;;;;;5017037;28;20376;-70
2023/08/02 02:25:01;;;;;;;8.18;3.78;;;;;;;;;;5035164;28;20407;-69
2023/08/02 02:27:27;;;;;;;8.30;3.90;;;;;;;;;;5035183;28;20437;-70
2023/08/02 02:29:53;;;;;;;12.18;4.10;;;;;;;;;;5035164;28;20383;-70
2023/08/02 02:32:18;;;;;;;7.87;3.87;;;;;;;;;;5018465;28;20187;-70
2023/08/02 02:34:44;;;;;;;10.23;4.07;;;;;;;;;;5036112;28;20184;-71
2023/08/02 02:37:10;;;;;;;7.10;3.43;;;;;;;;;;5036745;28;20175;-70
2023/08/02 02:39:37;;;;;;;10.37;3.63;;;;;;;;;;5036137;28;20553;-70
2023/08/02 02:42:03;;;;;;;7.03;3.70;;;;;;;;;;5036757;28;20232;-71
2023/08/02 02:44:55;;;;;;;8.60;4.10;;;;;;;;;;5041576;28;20179;-69
2023/08/02 02:47:21;;;;;;;10.27;3.70;;;;;;;;;;5032832;28;20680;-70
2023/08/02 02:49:47;;;;;;;9.07;4.00;;;;;;;;;;5036579;28;20195;-70
2023/08/02 02:52:13;;;;;;;7.87;3.90;;;;;;;;;;5036824;28;20175;-70
2023/08/02 02:54:39;;;;;;;12.43;4.43;;;;;;;;;;5037375;28;20292;-70
2023/08/02 02:57:05;;;;;;;8.83;4.53;;;;;;;;;;5022554;28;20547;-70
2023/08/02 02:59:32;;;;;;;13.27;4.57;;;;;;;;;;5020663;28;20194;-70
2023/08/02 03:01:58;;;;;;;16.30;4.77;;;;;;;;;;5020112;28;20191;-70
2023/08/02 03:04:24;;;;;;;9.87;4.67;;;;;;;;;;5037891;28;20179;-70
2023/08/02 03:06:51;;;;;;;7.60;4.10;;;;;;;;;;5038003;28;20543;-70
2023/08/02 03:09:17;;;;;;;8.53;4.73;;;;;;;;;;5027610;28;20182;-70
2023/08/02 03:11:43;;;;;;;13.20;5.90;;;;;;;;;;5037207;28;20175;-69
2023/08/02 03:14:09;;;;;;;10.93;4.93;;;;;;;;;;5037291;28;20211;-69
2023/08/02 03:16:35;;;;;;;12.73;6.00;;;;;;;;;;5019237;28;20202;-69
2023/08/02 03:19:01;;;;;;;16.77;7.83;;;;;;;;;;5037760;28;20700;-70
2023/08/02 03:21:27;;;;;;;16.37;7.83;;;;;;;;;;5037594;28;20207;-70
2023/08/02 03:23:53;;;;;;;14.93;7.87;;;;;;;;;;5037443;28;20179;-70
2023/08/02 03:26:19;;;;;;;14.33;7.43;;;;;;;;;;5038247;28;20206;-70
2023/08/02 03:28:45;;;;;;;11.67;7.07;;;;;;;;;;5037650;28;20202;-70
2023/08/02 03:31:11;;;;;;;15.67;7.57;;;;;;;;;;5037621;28;20255;-70
2023/08/02 03:33:37;;;;;;;12.40;6.63;;;;;;;;;;5036986;28;20210;-70
2023/08/02 03:36:03;;;;;;;14.43;6.20;;;;;;;;;;5036904;28;20179;-70
2023/08/02 03:38:29;;;;;;;13.77;5.63;;;;;;;;;;5036544;28;20175;-70
2023/08/02 03:40:54;;;;;;;14.00;5.33;;;;;;;;;;5018911;28;20299;-70
2023/08/02 03:43:20;;;;;;;12.10;5.10;;;;;;;;;;5036464;28;20182;-69
2023/08/02 03:45:48;;;;;;;13.50;5.47;;;;;;;;;;5036144;28;20207;-70
2023/08/02 03:48:14;;;;;;;12.23;5.43;;;;;;;;;;5036020;28;20167;-70
2023/08/02 03:50:40;;;;;;;8.70;5.20;;;;;;;;;;5036240;28;20190;-70
2023/08/02 03:53:06;;;;;;;13.73;5.57;;;;;;;;;;5036958;28;20182;-71
2023/08/02 03:55:32;;;;;;;7.37;5.23;;;;;;;;;;5019389;28;20187;-70
2023/08/02 03:57:58;;;;;;;15.17;6.10;;;;;;;;;;5019177;28;20221;-71
2023/08/02 04:00:24;;;;;;;11.07;6.03;;;;;;;;;;5038432;28;20210;-70
2023/08/02 04:02:50;;;;;;;10.77;6.03;;;;;;;;;;5044714;28;20183;-70
2023/08/02 04:05:16;;;;;;;13.33;5.80;;;;;;;;;;5039065;28;20223;-71
2023/08/02 04:07:42;;;;;;;15.77;5.90;;;;;;;;;;5022133;28;20186;-70
2023/08/02 04:10:08;;;;;;;13.37;6.20;;;;;;;;;;5041222;28;20207;-71
2023/08/02 04:12:34;;;;;;;12.77;5.87;;;;;;;;;;5022738;28;20175;-70
2023/08/02 04:15:00;;;;;;;15.17;6.00;;;;;;;;;;5043383;28;20182;-70
2023/08/02 04:17:26;;;;;;;12.87;5.40;;;;;;;;;;5041462;28;20186;-71
2023/08/02 04:19:52;;;;;;;11.53;5.60;;;;;;;;;;5040271;28;20199;-72
2023/08/02 04:22:18;;;;;;;13.13;6.20;;;;;;;;;;5044170;28;20183;-71
2023/08/02 04:24:44;;;;;;;18.07;5.87;;;;;;;;;;5042685;28;20282;-71
2023/08/02 04:27:10;;;;;;;12.90;6.30;;;;;;;;;;5042468;28;20175;-71
2023/08/02 04:29:36;;;;;;;11.60;5.97;;;;;;;;;;5046119;28;20202;-71
2023/08/02 04:32:02;;;;;;;11.40;6.03;;;;;;;;;;5029682;28;20171;-70
2023/08/02 04:34:28;;;;;;;17.40;7.17;;;;;;;;;;5052161;28;20183;-71
2023/08/02 04:36:54;;;;;;;14.03;6.70;;;;;;;;;;5053222;28;20175;-70
2023/08/02 04:39:20;;;;;;;13.13;6.40;;;;;;;;;;5053838;28;20190;-71
2023/08/02 04:41:46;;;;;;;14.50;6.90;;;;;;;;;;5053609;28;20202;-72
2023/08/02 04:44:12;;;;;;;13.33;5.87;;;;;;;;;;5051653;28;20180;-71
2023/08/02 04:46:37;;;;;;;12.23;5.40;;;;;;;;;;5051988;28;20187;-70
2023/08/02 04:49:03;;;;;;;13.80;4.87;;;;;;;;;;5047953;28;20186;-71
2023/08/02 04:51:31;;;;;;;9.60;5.27;;;;;;;;;;5045777;28;20222;-70
2023/08/02 04:53:57;;;;;;;11.77;4.20;;;;;;;;;;5029634;28;20163;-71
2023/08/02 04:56:23;;;;;;;10.70;5.63;;;;;;;;;;5045848;28;20194;-71
2023/08/02 04:58:49;;;;;;;8.63;5.20;;;;;;;;;;5041253;28;20179;-70
2023/08/02 05:01:15;;;;;;;11.13;5.10;;;;;;;;;;5043487;28;20195;-71
2023/08/02 05:03:43;;;;;;;11.80;5.80;;;;;;;;;;5044746;28;20183;-70
2023/08/02 05:06:09;;;;;;;11.53;5.97;;;;;;;;;;5024477;28;20237;-71
2023/08/02 05:08:36;;;;;;;9.67;4.93;;;;;;;;;;5043546;28;20542;-70
2023/08/02 05:11:05;;;;;;;8.43;5.00;;;;;;;;;;5046949;28;20201;-70
2023/08/02 05:13:31;;;;;;;8.13;5.07;;;;;;;;;;5050855;28;20175;-71
2023/08/02 05:15:57;;;;;;;10.63;5.27;;;;;;;;;;5035151;28;20198;-71
2023/08/02 05:18:23;;;;;;;8.27;4.63;;;;;;;;;;5053835;28;20175;-71
2023/08/02 05:20:49;;;;;;;7.60;4.67;;;;;;;;;;5056908;28;20199;-70
2023/08/02 05:23:15;;;;;;;6.60;4.23;;;;;;;;;;5058051;28;20233;-71
2023/08/02 05:25:41;;;;;;;8.43;4.47;;;;;;;;;;5046390;28;20199;-70
2023/08/02 05:28:07;;;;;;;10.07;5.43;;;;;;;;;;5039461;28;20182;-70
2023/08/02 05:30:33;;;;;;;10.93;5.27;;;;;;;;;;5039871;28;20195;-70
2023/08/02 05:32:59;;;;;;;13.07;5.80;;;;;;;;;;5040822;28;20202;-71
2023/08/02 05:35:25;;;;;;;12.63;6.20;;;;;;;;;;5022009;28;20571;-71
2023/08/02 05:37:55;;;;;;;11.43;6.30;;;;;;;;;;5040954;28;20248;-71
2023/08/02 05:40:20;;;;;;;13.40;7.03;;;;;;;;;;5020935;28;20215;-71
2023/08/02 05:42:47;;;;;;;13.83;6.23;;;;;;;;;;5038717;28;20179;-70
2023/08/02 05:45:12;;;;;;;9.63;4.60;;;;;;;;;;5039673;28;20273;-70
2023/08/02 05:47:38;;;;;;;10.50;4.50;;;;;;;;;;5043130;28;20206;-71
2023/08/02 05:50:05;;;;;;;10.43;4.20;;;;;;;;;;5042422;28;20680;-70
2023/08/02 05:52:31;;;;;;;10.73;5.15;;;;;;;;;;5019998;28;20394;-71
2023/08/02 05:54:56;;;;;;;9.63;4.75;;;;;;;;;;5039582;28;20383;-71
2023/08/02 05:57:22;;;;;;;8.13;4.97;;;;;;;;;;5022616;28;20179;-70
2023/08/02 05:59:49;;;;;;;8.07;4.67;;;;;;;;;;5038677;28;20703;-70
2023/08/02 06:02:15;;;;;;;15.10;5.87;;;;;;;;;;5019645;28;20187;-70
2023/08/02 06:04:43;;;;;;;13.60;7.63;;;;;;;;;;5019362;28;20210;-70
2023/08/02 06:07:09;;;;;;;9.27;7.23;;;;;;;;;;5019406;28;20187;-70
2023/08/02 06:09:35;;;;;;;11.73;7.20;;;;;;;;;;5038052;28;20249;-70
2023/08/02 06:12:01;;;;;;;8.03;5.80;;;;;;;;;;5039011;28;20179;-70
2023/08/02 06:14:27;;;;;;;11.90;5.60;;;;;;;;;;5039328;28;20202;-70
2023/08/02 06:16:53;;;;;;;14.30;6.10;;;;;;;;;;5038500;28;20390;-71
2023/08/02 06:19:19;;;;;;;9.57;5.13;;;;;;;;;;5019325;28;20387;-70
2023/08/02 06:21:45;;;;;;;13.38;7.38;;;;;;;;;;5036421;28;20493;-70
2023/08/02 06:24:11;;;;;;;49.60;22.95;;;;;;;;;;5017917;28;20714;-71
2023/08/02 06:26:37;;;;;;;32.20;13.70;;;;;;;;;;5036802;28;20203;-71
2023/08/02 06:29:03;;;;;;;29.23;12.75;;;;;;;;;;5035657;28;20466;-71
2023/08/02 06:31:29;;;;;;;47.50;15.53;;;;;;;;;;5058297;23;20230;-65
2023/08/02 06:33:55;;;;;;;57.67;18.97;;;;;;;;;;5035771;28;20171;-65
2023/08/02 06:36:21;;;;;;;40.23;14.10;;;;;;;;;;5035585;28;20179;-65
2023/08/02 06:38:47;;;;;;;27.65;11.57;;;;;;;;;;5016909;28;20375;-65
2023/08/02 06:41:13;;;;;;;11.90;7.23;;;;;;;;;;5018207;28;20669;-66
2023/08/02 06:43:39;;;;;;;15.37;7.23;;;;;;;;;;5036052;28;20629;-65
2023/08/02 06:46:05;;;;;;;12.17;7.40;;;;;;;;;;5035781;28;20288;-66
2023/08/02 06:48:31;;;;;;;13.43;7.13;;;;;;;;;;5017804;28;20186;-66
2023/08/02 06:50:57;;;;;;;13.67;7.23;;;;;;;;;;5035780;28;20191;-66
2023/08/02 06:53:23;;;;;;;12.57;7.20;;;;;;;;;;5017666;28;20594;-65
2023/08/02 06:55:49;;;;;;;14.23;7.50;;;;;;;;;;5017617;28;20210;-65
2023/08/02 06:58:15;;;;;;;15.50;8.13;;;;;;;;;;5035617;28;20179;-65
2023/08/02 07:00:41;;;;;;;22.13;8.43;;;;;;;;;;5017477;28;20226;-65
2023/08/02 07:03:07;;;;;;;12.97;7.50;;;;;;;;;;5035241;28;20183;-65
2023/08/02 07:05:34;;;;;;;13.23;8.87;;;;;;;;;;5035555;28;20199;-65
2023/08/02 07:08:00;;;;;;;15.70;8.10;;;;;;;;;;5035894;28;20178;-66
2023/08/02 07:10:27;;;;;;;23.17;9.70;;;;;;;;;;5019473;28;20206;-63
2023/08/02 07:12:53;;;;;;;18.33;9.37;;;;;;;;;;5017532;28;20705;-64
2023/08/02 07:15:20;;;;;;;25.23;11.20;;;;;;;;;;5035013;28;20552;-64
2023/08/02 07:17:46;;;;;;;20.10;9.63;;;;;;;;;;5034890;28;20233;-64
2023/08/02 07:20:12;;;;;;;23.30;11.27;;;;;;;;;;5034946;28;20206;-65
2023/08/02 07:22:39;;;;;;;22.80;10.13;;;;;;;;;;5035099;28;20263;-65
2023/08/02 07:25:05;;;;;;;31.93;12.23;;;;;;;;;;5034738;28;20740;-65
2023/08/02 07:27:32;;;;;;;16.77;8.87;;;;;;;;;;5020749;28;20210;-64
2023/08/02 07:29:58;;;;;;;14.67;8.13;;;;;;;;;;5020644;28;20187;-65
2023/08/02 07:32:25;;;;;;;13.63;7.77;;;;;;;;;;5017150;28;20179;-65
2023/08/02 07:34:51;;;;;;;13.50;6.70;;;;;;;;;;5034493;28;20186;-65
2023/08/02 07:37:17;;;;;;;16.63;8.57;;;;;;;;;;5034912;28;20179;-65
2023/08/02 07:39:43;;;;;;;12.77;7.40;;;;;;;;;;5016733;28;20221;-65
2023/08/02 07:42:09;;;;;;;13.37;6.57;;;;;;;;;;5034527;28;20214;-65
2023/08/02 07:44:36;;;;;;;10.37;6.87;;;;;;;;;;5034538;28;20190;-66
2023/08/02 07:47:02;;;;;;;11.23;7.27;;;;;;;;;;5034554;28;20250;-66
2023/08/02 07:49:29;;;;;;;12.40;6.73;;;;;;;;;;5016941;28;20227;-65
2023/08/02 07:51:55;;;;;;;11.57;7.40;;;;;;;;;;5034255;28;20699;-66
2023/08/02 07:54:21;;;;;;;23.70;10.93;;;;;;;;;;5034289;28;20269;-66
2023/08/02 07:56:47;;;;;;;57.57;22.03;;;;;;;;;;5016472;28;20651;-65
2023/08/02 07:59:12;;;;;;;46.73;18.13;;;;;;;;;;5016414;28;20295;-65
2023/08/02 08:01:40;;;;;;;54.77;24.30;;;;;;;;;;5034121;28;20606;-65
2023/08/02 08:04:06;;;;;;;60.73;26.53;;;;;;;;;;5034186;28;20191;-65
2023/08/02 08:06:32;;;;;;;116.20;42.43;;;;;;;;;;5034596;28;20264;-67
2023/08/02 08:08:58;;;;;;;103.53;38.37;;;;;;;;;;5034113;28;20182;-64
2023/08/02 08:11:27;;;;;;;19.17;8.67;;;;;;;;;;5016569;28;20195;-65
2023/08/02 08:13:53;;;;;;;11.10;6.20;;;;;;;;;;5034664;28;20614;-64
2023/08/02 08:16:19;;;;;;;7.70;4.87;;;;;;;;;;5035094;28;20256;-66
2023/08/02 08:18:45;;;;;;;5.07;4.07;;;;;;;;;;5036239;28;20625;-65
2023/08/02 08:21:11;;;;;;;22.53;14.33;;;;;;;;;;5034397;28;20286;-64
2023/08/02 08:23:37;;;;;;;29.83;16.80;;;;;;;;;;5016199;28;20625;-66
2023/08/02 08:26:03;;;;;;;26.33;15.90;;;;;;;;;;5033878;28;20211;-66
2023/08/02 08:28:29;;;;;;;28.07;16.60;;;;;;;;;;5033806;28;20245;-65
2023/08/02 08:30:59;;;;;;;9.67;6.47;;;;;;;;;;5033601;28;20214;-65
2023/08/02 08:33:25;;;;;;;12.77;5.93;;;;;;;;;;5033656;28;20176;-65
2023/08/02 08:35:51;;;;;;;6.30;4.47;;;;;;;;;;5033847;28;20194;-64
2023/08/02 08:38:16;;;;;;;16.13;9.80;;;;;;;;;;5033852;28;20182;-65
2023/08/02 08:40:49;;;;;;;22.17;14.67;;;;;;;;;;5033685;28;20203;-64
2023/08/02 08:43:15;;;;;;;8.07;5.30;;;;;;;;;;5016039;28;20201;-65
2023/08/02 08:45:41;;;;;;;12.63;7.60;;;;;;;;;;5033373;28;20207;-64
2023/08/02 08:48:08;;;;;;;9.60;5.17;;;;;;;;;;5033244;28;20175;-64
2023/08/02 08:50:34;;;;;;;6.90;5.60;;;;;;;;;;5015782;28;20293;-65
2023/08/02 08:53:02;;;;;;;7.27;5.50;;;;;;;;;;5015721;28;20678;-66
2023/08/02 08:55:29;;;;;;;10.47;7.23;;;;;;;;;;5032907;28;20225;-65
2023/08/02 08:57:55;;;;;;;12.70;8.40;;;;;;;;;;5033105;28;20175;-64
2023/08/02 09:00:21;;;;;;;15.95;9.32;;;;;;;;;;5014385;28;20395;-65
2023/08/02 09:02:48;;;;;;;14.35;9.18;;;;;;;;;;5014384;28;20753;-65
2023/08/02 09:05:14;;;;;;;11.70;8.77;;;;;;;;;;5033317;28;20293;-65
2023/08/02 09:07:40;;;;;;;12.33;7.90;;;;;;;;;;5015478;28;20214;-65
2023/08/02 09:10:06;;;;;;;15.73;9.20;;;;;;;;;;5033177;28;20179;-65
2023/08/02 09:12:43;;;;;;;13.83;7.73;;;;;;;;;;5015898;28;20608;-65
2023/08/02 09:15:09;;;;;;;19.80;9.50;;;;;;;;;;5033492;28;20213;-65
2023/08/02 09:17:49;;;;;;;13.00;8.60;;;;;;;;;;5033240;28;20183;-66
2023/08/02 09:20:16;;;;;;;12.43;7.13;;;;;;;;;;5015787;28;20207;-64
2023/08/02 09:22:41;;;;;;;8.73;6.40;;;;;;;;;;5034347;28;20184;-64
2023/08/02 09:25:09;;;;;;;13.93;7.70;;;;;;;;;;5033230;28;20218;-64
2023/08/02 09:27:35;;;;;;;12.73;7.93;;;;;;;;;;5033185;28;20549;-65
2023/08/02 09:30:02;;;;;;;11.90;7.67;;;;;;;;;;5033057;28;20203;-65
2023/08/02 09:32:28;;;;;;;12.70;8.70;;;;;;;;;;5015356;28;20236;-65
2023/08/02 09:34:55;;;;;;;17.53;8.90;;;;;;;;;;5032991;28;20266;-66
2023/08/02 09:37:35;;;;;;;13.60;8.60;;;;;;;;;;5033089;28;20183;-66
2023/08/02 09:40:01;;;;;;;11.20;9.23;;;;;;;;;;5032932;28;20656;-65
2023/08/02 09:42:28;;;;;;;13.00;9.43;;;;;;;;;;5015290;28;20187;-66
2023/08/02 09:44:55;;;;;;;13.93;8.17;;;;;;;;;;5015536;28;20215;-65
2023/08/02 09:47:21;;;;;;;8.43;7.20;;;;;;;;;;5033717;28;20175;-66
2023/08/02 09:50:02;;;;;;;10.07;7.73;;;;;;;;;;5033545;28;20182;-66
2023/08/02 09:52:28;;;;;;;10.00;7.43;;;;;;;;;;5033812;28;20549;-67
2023/08/02 09:54:54;;;;;;;10.23;7.83;;;;;;;;;;5032992;28;20207;-65
2023/08/02 09:57:27;;;;;;;9.83;6.80;;;;;;;;;;5015390;28;20186;-65
2023/08/02 09:59:55;;;;;;;13.47;9.50;;;;;;;;;;5032803;28;20176;-66
2023/08/02 10:02:25;;;;;;;10.40;8.33;;;;;;;;;;5033103;28;20203;-66
2023/08/02 10:04:54;;;;;;;13.47;9.37;;;;;;;;;;5035023;28;20204;-65
2023/08/02 10:07:20;;;;;;;14.83;10.43;;;;;;;;;;5019078;28;20214;-65
2023/08/02 10:09:48;;;;;;;10.20;9.20;;;;;;;;;;5028184;28;20175;-65
2023/08/02 10:12:18;;;;;;;10.30;9.20;;;;;;;;;;5035246;28;20206;-65
2023/08/02 10:14:44;;;;;;;10.40;9.30;;;;;;;;;;5034331;28;20231;-65
2023/08/02 10:17:11;;;;;;;15.20;10.57;;;;;;;;;;5049490;28;20548;-66
2023/08/02 10:19:37;;;;;;;13.90;11.00;;;;;;;;;;5049670;28;20171;-66
2023/08/02 10:22:04;;;;;;;15.10;10.93;;;;;;;;;;5019692;28;20697;-67
2023/08/02 10:24:30;;;;;;;11.20;8.43;;;;;;;;;;5019155;28;20182;-64
2023/08/02 10:26:57;;;;;;;10.53;6.73;;;;;;;;;;5019094;28;20172;-64
2023/08/02 10:29:27;;;;;;;7.73;6.47;;;;;;;;;;5038292;28;20175;-65
2023/08/02 10:31:53;;;;;;;10.43;7.50;;;;;;;;;;5023497;28;20221;-65
2023/08/02 10:34:34;;;;;;;7.07;6.37;;;;;;;;;;5024359;28;20183;-65
2023/08/02 10:37:00;;;;;;;6.67;5.27;;;;;;;;;;5042333;28;20198;-64
2023/08/02 10:39:45;;;;;;;7.90;5.30;;;;;;;;;;5022865;28;20234;-65
2023/08/02 10:42:12;;;;;;;7.47;6.20;;;;;;;;;;5040652;28;20199;-64
2023/08/02 10:44:38;;;;;;;7.40;6.53;;;;;;;;;;5023393;28;20206;-66
2023/08/02 10:47:22;;;;;;;6.90;6.20;;;;;;;;;;5039612;28;20183;-66
2023/08/02 10:49:48;;;;;;;9.10;6.57;;;;;;;;;;5039226;28;20186;-65
2023/08/02 10:52:28;;;;;;;7.43;6.57;;;;;;;;;;5042217;28;20226;-66
2023/08/02 10:55:04;;;;;;;7.53;6.13;;;;;;;;;;5024742;28;20232;-66
2023/08/02 10:57:30;;;;;;;6.67;5.30;;;;;;;;;;5043171;28;20189;-65
2023/08/02 10:59:56;;;;;;;6.03;5.00;;;;;;;;;;5041477;28;20175;-65
2023/08/02 11:02:25;;;;;;;5.33;4.33;;;;;;;;;;5022545;28;20187;-65
2023/08/02 11:04:51;;;;;;;7.33;6.23;;;;;;;;;;5041112;28;20221;-65
2023/08/02 11:07:18;;;;;;;13.33;5.83;;;;;;;;;;5040929;28;20175;-65
2023/08/02 11:09:45;;;;;;;6.73;4.60;;;;;;;;;;5035700;28;20262;-65
2023/08/02 11:12:21;;;;;;;7.60;5.63;;;;;;;;;;5035598;28;20198;-65
2023/08/02 11:14:48;;;;;;;4.87;4.33;;;;;;;;;;5035234;28;20258;-65
2023/08/02 11:17:17;;;;;;;10.27;4.97;;;;;;;;;;5034623;28;20179;-66
2023/08/02 11:19:48;;;;;;;4.70;3.97;;;;;;;;;;5035555;28;20253;-66
2023/08/02 11:22:13;;;;;;;7.57;4.20;;;;;;;;;;5034834;28;20664;-65
2023/08/02 11:24:47;;;;;;;6.13;3.93;;;;;;;;;;5017192;28;20225;-66
2023/08/02 11:27:20;;;;;;;6.40;3.63;;;;;;;;;;5035317;28;20214;-66
2023/08/02 11:30:07;;;;;;;6.93;3.70;;;;;;;;;;5035035;28;20266;-66
2023/08/02 11:32:33;;;;;;;5.07;2.70;;;;;;;;;;5036456;28;20197;-65
2023/08/02 11:35:00;;;;;;;5.23;3.60;;;;;;;;;;5035940;28;20191;-66
2023/08/02 11:37:26;;;;;;;7.87;4.10;;;;;;;;;;5017188;28;20189;-66
2023/08/02 11:40:00;;;;;;;11.83;3.57;;;;;;;;;;5034984;28;20222;-66
2023/08/02 11:42:26;;;;;;;6.47;3.00;;;;;;;;;;5035583;28;20170;-66
2023/08/02 11:44:53;;;;;;;3.57;2.70;;;;;;;;;;5017142;28;20693;-66
2023/08/02 11:47:20;;;;;;;3.30;2.70;;;;;;;;;;5034804;28;20246;-65
2023/08/02 11:49:55;;;;;;;5.90;2.40;;;;;;;;;;5016938;28;20206;-65
2023/08/02 11:52:32;;;;;;;7.13;3.33;;;;;;;;;;5034907;28;20193;-67
2023/08/02 11:54:58;;;;;;;4.93;2.67;;;;;;;;;;5017224;28;20529;-67
2023/08/02 11:57:25;;;;;;;4.83;2.73;;;;;;;;;;5034705;28;20546;-66
2023/08/02 11:59:51;;;;;;;5.13;3.40;;;;;;;;;;5016448;28;20183;-66
2023/08/02 12:02:26;;;;;;;7.23;3.73;;;;;;;;;;5034490;28;20183;-67
2023/08/02 12:04:52;;;;;;;4.47;2.20;;;;;;;;;;5034376;28;20214;-67
2023/08/02 12:07:44;;;;;;;5.80;2.70;;;;;;;;;;5034540;28;20641;-66
2023/08/02 12:10:11;;;;;;;6.03;2.67;;;;;;;;;;5014460;28;20727;-66
2023/08/02 12:12:37;;;;;;;3.10;2.13;;;;;;;;;;5016254;28;20183;-65
2023/08/02 12:15:10;;;;;;;4.07;2.60;;;;;;;;;;5034125;28;20191;-65
2023/08/02 12:17:36;;;;;;;3.20;2.53;;;;;;;;;;5016246;28;20215;-65
2023/08/02 12:20:02;;;;;;;5.40;2.63;;;;;;;;;;5033877;28;20183;-65
2023/08/02 12:22:28;;;;;;;6.03;2.83;;;;;;;;;;5016144;28;20184;-65
2023/08/02 12:25:04;;;;;;;6.20;3.10;;;;;;;;;;5016296;28;20215;-65
2023/08/02 12:27:30;;;;;;;4.67;2.43;;;;;;;;;;5034351;28;20167;-68
2023/08/02 12:30:07;;;;;;;3.07;2.47;;;;;;;;;;5033204;28;20257;-67
2023/08/02 12:32:33;;;;;;;3.63;2.30;;;;;;;;;;5034921;28;20199;-67
2023/08/02 12:35:06;;;;;;;4.43;2.40;;;;;;;;;;5034173;28;20179;-66
2023/08/02 12:37:32;;;;;;;5.63;2.63;;;;;;;;;;5034202;28;20202;-66
2023/08/02 12:39:58;;;;;;;3.10;2.10;;;;;;;;;;5016498;28;20194;-67
2023/08/02 12:42:24;;;;;;;3.20;1.70;;;;;;;;;;5034512;28;20175;-67
2023/08/02 12:44:50;;;;;;;3.60;2.20;;;;;;;;;;5034129;28;20229;-68
2023/08/02 12:47:16;;;;;;;3.93;2.63;;;;;;;;;;5016421;28;20183;-67
2023/08/02 12:49:42;;;;;;;8.10;3.93;;;;;;;;;;5034538;28;20183;-68
2023/08/02 12:52:08;;;;;;;5.33;3.40;;;;;;;;;;5016060;28;20203;-65
2023/08/02 12:54:34;;;;;;;2.43;1.93;;;;;;;;;;5033816;28;20175;-66
2023/08/02 12:57:00;;;;;;;2.93;1.80;;;;;;;;;;5033955;28;20183;-65
2023/08/02 12:59:26;;;;;;;2.50;1.53;;;;;;;;;;5033826;28;20209;-65
2023/08/02 13:01:52;;;;;;;2.87;1.43;;;;;;;;;;5033645;28;20203;-66
2023/08/02 13:04:18;;;;;;;4.40;1.67;;;;;;;;;;5033954;28;20201;-66
2023/08/02 13:06:44;;;;;;;3.30;1.70;;;;;;;;;;5033206;28;20206;-66
2023/08/02 13:09:10;;;;;;;5.00;2.03;;;;;;;;;;5015625;28;20215;-66
2023/08/02 13:11:36;;;;;;;5.17;2.23;;;;;;;;;;5033888;28;20199;-66
2023/08/02 13:14:02;;;;;;;6.63;2.27;;;;;;;;;;5033314;28;20557;-66
2023/08/02 13:16:28;;;;;;;8.23;2.67;;;;;;;;;;5033340;28;20288;-67
2023/08/02 13:18:54;;;;;;;6.47;2.23;;;;;;;;;;5033753;28;20183;-67
2023/08/02 13:21:20;;;;;;;5.77;2.30;;;;;;;;;;5033320;28;20199;-67
2023/08/02 13:23:49;;;;;;;7.33;2.40;;;;;;;;;;5016162;28;20187;-67
2023/08/02 13:26:15;;;;;;;5.70;2.23;;;;;;;;;;5016658;28;20203;-67
2023/08/02 13:28:41;;;;;;;5.07;2.43;;;;;;;;;;5034209;28;20203;-67
2023/08/02 13:31:07;;;;;;;4.43;2.63;;;;;;;;;;5016718;28;20215;-67
2023/08/02 13:33:33;;;;;;;4.37;2.00;;;;;;;;;;5017114;28;20207;-67
2023/08/02 13:35:59;;;;;;;4.23;1.90;;;;;;;;;;5037941;28;20175;-67
2023/08/02 13:38:25;;;;;;;5.13;2.10;;;;;;;;;;5072123;22;20298;-70
2023/08/02 13:40:51;;;;;;;5.30;1.60;;;;;;;;;;5054521;28;20265;-70
2023/08/02 13:43:17;;;;;;;3.27;1.90;;;;;;;;;;5056700;28;20197;-71
2023/08/02 13:45:44;;;;;;;2.67;2.10;;;;;;;;;;5056751;28;20664;-71
2023/08/02 13:48:11;;;;;;;5.20;2.00;;;;;;;;;;5038425;28;20289;-70
2023/08/02 13:50:38;;;;;;;4.10;2.40;;;;;;;;;;5056336;28;20194;-71
2023/08/02 13:53:05;;;;;;;4.57;2.60;;;;;;;;;;5038411;28;20178;-70
2023/08/02 13:55:31;;;;;;;5.20;2.43;;;;;;;;;;5056780;28;20190;-70
2023/08/02 13:57:57;;;;;;;8.10;2.37;;;;;;;;;;5056573;28;20565;-70
2023/08/02 14:00:23;;;;;;;5.23;2.00;;;;;;;;;;5038250;28;20182;-70
2023/08/02 14:02:49;;;;;;;7.60;2.60;;;;;;;;;;5038411;28;20636;-70
2023/08/02 14:05:15;;;;;;;5.87;2.53;;;;;;;;;;5056891;28;20209;-70
2023/08/02 14:07:41;;;;;;;6.30;2.80;;;;;;;;;;5057026;28;20695;-69
2023/08/02 14:10:07;;;;;;;6.93;2.40;;;;;;;;;;5060356;28;20572;-70
2023/08/02 14:12:34;;;;;;;6.10;2.40;;;;;;;;;;5041560;28;20182;-70
2023/08/02 14:15:00;;;;;;;6.50;2.90;;;;;;;;;;5058139;28;20183;-71
2023/08/02 14:17:26;;;;;;;4.87;2.47;;;;;;;;;;5039256;28;20203;-70
2023/08/02 14:19:52;;;;;;;5.47;2.57;;;;;;;;;;5040702;28;20217;-70
2023/08/02 14:22:18;;;;;;;7.50;2.73;;;;;;;;;;5039260;28;20182;-70
2023/08/02 14:24:45;;;;;;;5.00;2.37;;;;;;;;;;5055910;28;20179;-70
2023/08/02 14:27:11;;;;;;;4.33;2.47;;;;;;;;;;5055714;28;20700;-70
2023/08/02 14:29:37;;;;;;;6.20;2.63;;;;;;;;;;5056153;28;20545;-71
2023/08/02 14:32:04;;;;;;;4.93;2.40;;;;;;;;;;5055786;28;20614;-71
2023/08/02 14:34:30;;;;;;;5.97;2.60;;;;;;;;;;5037649;28;20236;-71